createdAt,value
2022-10-17T00:01:14.490Z,16.50
2022-10-17T00:03:43.018Z,16.60
2022-10-17T00:06:13.552Z,16.50
2022-10-17T00:08:43.579Z,16.60
2022-10-17T00:11:16.346Z,16.50
2022-10-17T00:13:44.899Z,16.60
2022-10-17T00:16:15.038Z,16.60
2022-10-17T00:18:43.325Z,16.60
2022-10-17T00:21:17.349Z,16.60
2022-10-17T00:23:48.886Z,16.60
2022-10-17T00:26:17.881Z,16.60
2022-10-17T00:28:48.066Z,16.50
2022-10-17T00:31:19.954Z,16.50
2022-10-17T00:33:48.986Z,16.50
2022-10-17T00:36:19.239Z,16.50
2022-10-17T00:38:49.618Z,16.60
2022-10-17T00:41:20.320Z,16.50
2022-10-17T00:43:53.548Z,16.50
2022-10-17T00:46:24.937Z,16.50
2022-10-17T00:48:56.443Z,16.50
2022-10-17T00:51:34.615Z,16.60
2022-10-17T00:54:04.830Z,16.60
2022-10-17T00:56:34.135Z,16.60
2022-10-17T00:59:03.198Z,16.60
2022-10-17T01:01:33.075Z,16.60
2022-10-17T01:04:01.656Z,16.50
2022-10-17T01:06:29.920Z,16.60
2022-10-17T01:08:58.339Z,16.60
2022-10-17T01:11:37.832Z,16.60
2022-10-17T01:14:10.226Z,16.50
2022-10-17T01:16:49.011Z,16.60
2022-10-17T01:19:39.599Z,16.50
2022-10-17T01:22:13.533Z,16.50
2022-10-17T01:25:08.041Z,16.50
2022-10-17T01:28:00.540Z,16.60
2022-10-17T01:30:51.896Z,16.60
2022-10-17T01:33:32.147Z,16.60
2022-10-17T01:36:06.002Z,16.60
2022-10-17T01:38:42.124Z,16.60
2022-10-17T01:41:18.467Z,16.60
2022-10-17T01:43:51.857Z,16.50
2022-10-17T01:46:26.185Z,16.60
2022-10-17T01:48:59.115Z,16.50
2022-10-17T01:51:31.316Z,16.60
2022-10-17T01:54:04.025Z,16.50
2022-10-17T01:56:35.182Z,16.50
2022-10-17T01:59:11.282Z,16.60
2022-10-17T02:01:43.080Z,16.50
2022-10-17T02:04:13.129Z,16.60
2022-10-17T02:06:44.425Z,16.60
2022-10-17T02:09:20.228Z,16.50
2022-10-17T02:12:08.022Z,16.60
2022-10-17T02:14:50.715Z,16.60
2022-10-17T02:17:30.578Z,16.50
2022-10-17T02:20:11.073Z,16.60
2022-10-17T02:22:44.796Z,16.60
2022-10-17T02:25:23.020Z,16.60
2022-10-17T02:27:59.892Z,16.50
2022-10-17T02:30:34.607Z,16.50
2022-10-17T02:33:09.844Z,16.60
2022-10-17T02:35:44.532Z,16.60
2022-10-17T02:38:14.800Z,16.60
2022-10-17T02:40:47.590Z,16.60
2022-10-17T02:43:16.356Z,16.60
2022-10-17T02:45:44.769Z,16.60
2022-10-17T02:48:19.289Z,16.60
2022-10-17T02:50:57.022Z,16.50
2022-10-17T02:53:31.382Z,16.60
2022-10-17T02:56:09.641Z,16.50
2022-10-17T02:58:39.825Z,16.50
2022-10-17T03:01:08.995Z,16.50
2022-10-17T03:03:37.385Z,16.50
2022-10-17T03:06:07.472Z,16.60
2022-10-17T03:08:35.769Z,16.50
2022-10-17T03:11:04.646Z,16.50
2022-10-17T03:13:36.348Z,16.60
2022-10-17T03:16:08.424Z,16.60
2022-10-17T03:18:37.281Z,16.60
2022-10-17T03:21:07.894Z,16.50
2022-10-17T03:23:37.023Z,16.60
2022-10-17T03:26:07.747Z,16.60
2022-10-17T03:28:37.084Z,16.60
2022-10-17T03:31:10.155Z,16.50
2022-10-17T03:33:40.126Z,16.60
2022-10-17T03:36:12.258Z,16.50
2022-10-17T03:38:40.667Z,16.50
2022-10-17T03:41:09.698Z,16.60
2022-10-17T03:43:40.475Z,16.50
2022-10-17T03:46:09.575Z,16.60
2022-10-17T03:48:38.941Z,16.60
2022-10-17T03:51:11.262Z,16.50
2022-10-17T03:53:47.456Z,16.60
2022-10-17T03:56:17.892Z,16.60
2022-10-17T03:58:52.186Z,16.50
2022-10-17T04:01:21.061Z,16.50
2022-10-17T04:03:51.515Z,16.50
2022-10-17T04:06:22.439Z,16.60
2022-10-17T04:08:51.192Z,16.60
2022-10-17T04:11:35.157Z,16.50
2022-10-17T04:14:05.017Z,16.60
2022-10-17T04:16:33.736Z,16.60
2022-10-17T04:19:05.990Z,16.60
2022-10-17T04:21:43.109Z,16.60
2022-10-17T04:24:12.739Z,16.60
2022-10-17T04:26:52.677Z,16.60
2022-10-17T04:29:23.871Z,16.60
2022-10-17T04:31:55.995Z,16.60
2022-10-17T04:34:32.092Z,16.60
2022-10-17T04:37:01.917Z,16.50
2022-10-17T04:39:31.319Z,16.50
2022-10-17T04:41:59.776Z,16.50
2022-10-17T04:44:30.852Z,16.60
2022-10-17T04:47:00.224Z,16.50
2022-10-17T04:49:28.809Z,16.60
2022-10-17T04:52:04.098Z,16.60
2022-10-17T04:54:38.960Z,16.60
2022-10-17T04:57:10.326Z,16.60
2022-10-17T04:59:40.610Z,16.50
2022-10-17T05:02:27.596Z,16.60
2022-10-17T05:04:56.979Z,16.60
2022-10-17T05:07:27.064Z,16.60
2022-10-17T05:10:04.292Z,16.60
2022-10-17T05:12:34.108Z,16.50
2022-10-17T05:15:02.444Z,16.60
2022-10-17T05:17:31.978Z,16.50
2022-10-17T05:20:01.125Z,16.60
2022-10-17T05:22:36.041Z,16.60
2022-10-17T05:25:07.765Z,16.50
2022-10-17T05:27:36.100Z,16.50
2022-10-17T05:30:04.637Z,16.60
2022-10-17T05:32:36.033Z,16.50
2022-10-17T05:35:04.846Z,16.60
2022-10-17T05:37:35.709Z,16.50
2022-10-17T05:40:05.232Z,16.50
2022-10-17T05:42:33.936Z,16.60
2022-10-17T05:45:03.649Z,16.60
2022-10-17T05:47:32.462Z,16.50
2022-10-17T05:50:01.216Z,16.60
2022-10-17T05:52:38.561Z,16.50
2022-10-17T05:55:13.268Z,16.50
2022-10-17T05:57:41.791Z,16.60
2022-10-17T06:00:16.120Z,16.60
2022-10-17T06:02:46.916Z,16.50
2022-10-17T06:05:17.385Z,16.50
2022-10-17T06:07:48.127Z,16.50
2022-10-17T06:10:18.226Z,16.50
2022-10-17T06:12:47.286Z,16.50
2022-10-17T06:15:16.853Z,16.50
2022-10-17T06:17:49.611Z,16.50
2022-10-17T06:20:18.344Z,16.50
2022-10-17T06:22:48.107Z,16.50
2022-10-17T06:25:24.122Z,16.50
2022-10-17T06:30:23.058Z,16.50
2022-10-17T06:32:52.625Z,16.50
2022-10-17T06:35:22.003Z,16.50
2022-10-17T06:37:51.768Z,16.50
2022-10-17T06:40:20.297Z,16.50
2022-10-17T06:42:49.039Z,16.50
2022-10-17T06:45:35.826Z,16.50
2022-10-17T06:48:31.067Z,16.50
2022-10-17T06:51:37.731Z,16.50
2022-10-17T06:54:10.758Z,16.50
2022-10-17T06:56:57.684Z,16.50
2022-10-17T06:59:29.161Z,16.50
2022-10-17T07:02:05.716Z,16.50
2022-10-17T07:04:34.430Z,16.60
2022-10-17T07:07:03.544Z,16.60
2022-10-17T07:09:35.799Z,16.60
2022-10-17T07:12:06.823Z,16.60
2022-10-17T07:14:35.734Z,16.60
2022-10-17T07:17:04.593Z,16.60
2022-10-17T07:19:34.200Z,16.60
2022-10-17T07:22:02.680Z,16.60
2022-10-17T07:24:32.599Z,16.60
2022-10-17T07:27:18.450Z,16.50
2022-10-17T07:29:47.521Z,16.60
2022-10-17T07:32:24.973Z,16.60
2022-10-17T07:34:53.541Z,16.60
2022-10-17T07:37:21.871Z,16.60
2022-10-17T07:39:56.667Z,16.60
2022-10-17T07:42:27.750Z,16.60
2022-10-17T07:44:56.558Z,16.60
2022-10-17T07:47:27.634Z,16.60
2022-10-17T07:49:56.443Z,16.60
2022-10-17T07:52:25.786Z,16.60
2022-10-17T07:54:54.203Z,16.60
2022-10-17T07:57:22.570Z,16.60
2022-10-17T07:59:52.896Z,16.60
2022-10-17T08:02:23.918Z,16.60
2022-10-17T08:04:52.559Z,16.60
2022-10-17T08:07:24.370Z,16.60
2022-10-17T08:09:57.020Z,16.60
2022-10-17T08:12:26.060Z,16.60
2022-10-17T08:14:55.883Z,16.70
2022-10-17T08:17:24.282Z,16.60
2022-10-17T08:19:52.630Z,16.60
2022-10-17T08:22:22.917Z,16.60
2022-10-17T08:24:51.250Z,16.60
2022-10-17T08:27:24.136Z,16.70
2022-10-17T08:29:53.601Z,16.70
2022-10-17T08:32:26.257Z,16.70
2022-10-17T08:34:55.579Z,16.60
2022-10-17T08:37:24.652Z,16.60
2022-10-17T08:39:52.879Z,16.60
2022-10-17T08:42:34.477Z,16.60
2022-10-17T08:45:16.531Z,16.70
2022-10-17T08:47:48.838Z,16.60
2022-10-17T08:50:23.495Z,16.60
2022-10-17T08:52:55.818Z,16.60
2022-10-17T08:55:30.727Z,16.60
2022-10-17T08:57:59.054Z,16.60
2022-10-17T09:00:30.242Z,16.70
2022-10-17T09:03:26.928Z,16.60
2022-10-17T09:06:04.485Z,16.60
2022-10-17T09:08:44.138Z,16.60
2022-10-17T09:11:32.382Z,16.70
2022-10-17T09:14:14.099Z,16.60
2022-10-17T09:17:09.508Z,16.70
2022-10-17T09:19:42.681Z,16.70
2022-10-17T09:22:15.639Z,16.60
2022-10-17T09:24:48.546Z,16.70
2022-10-17T09:27:24.541Z,16.70
2022-10-17T09:30:40.497Z,16.60
2022-10-17T09:33:28.182Z,16.60
2022-10-17T09:36:06.361Z,16.70
2022-10-17T09:38:41.515Z,16.70
2022-10-17T09:41:43.138Z,16.60
2022-10-17T09:44:20.094Z,16.60
2022-10-17T09:47:02.511Z,16.60
2022-10-17T09:49:34.894Z,16.70
2022-10-17T09:52:07.528Z,16.60
2022-10-17T09:54:43.333Z,16.60
2022-10-17T09:57:12.974Z,16.60
2022-10-17T09:59:44.170Z,16.60
2022-10-17T10:02:21.917Z,16.60
2022-10-17T10:05:10.816Z,16.60
2022-10-17T10:07:40.885Z,16.70
2022-10-17T10:10:27.838Z,16.70
2022-10-17T10:13:08.749Z,16.60
2022-10-17T10:15:41.263Z,16.60
2022-10-17T10:21:09.811Z,16.70
2022-10-17T10:23:41.231Z,16.70
2022-10-17T10:26:24.107Z,16.60
2022-10-17T10:28:59.166Z,16.70
2022-10-17T10:31:33.584Z,16.70
2022-10-17T10:34:05.174Z,16.70
2022-10-17T10:36:57.919Z,16.70
2022-10-17T10:39:50.923Z,16.70
2022-10-17T10:42:24.095Z,16.80
2022-10-17T10:44:53.695Z,16.90
2022-10-17T10:47:26.234Z,16.80
2022-10-17T10:50:09.993Z,16.80
2022-10-17T10:52:44.820Z,16.90
2022-10-17T10:55:23.746Z,16.90
2022-10-17T10:57:56.446Z,16.90
2022-10-17T11:00:29.015Z,16.90
2022-10-17T11:03:06.810Z,16.90
2022-10-17T11:05:44.205Z,16.90
2022-10-17T11:08:21.543Z,16.90
2022-10-17T11:11:01.826Z,17.00
2022-10-17T11:13:35.924Z,16.90
2022-10-17T11:16:17.938Z,16.90
2022-10-17T11:18:52.075Z,17.00
2022-10-17T11:21:28.939Z,17.00
2022-10-17T11:24:06.783Z,17.00
2022-10-17T11:26:44.321Z,17.00
2022-10-17T11:29:14.643Z,17.00
2022-10-17T11:31:51.602Z,17.00
2022-10-17T11:34:23.416Z,17.00
2022-10-17T11:36:56.276Z,17.00
2022-10-17T11:39:32.483Z,17.00
2022-10-17T11:42:07.930Z,17.10
2022-10-17T11:44:37.838Z,17.10
2022-10-17T11:47:12.494Z,17.10
2022-10-17T11:49:46.977Z,17.10
2022-10-17T11:52:51.708Z,17.10
2022-10-17T11:55:21.569Z,17.10
2022-10-17T11:58:15.140Z,17.10
2022-10-17T12:00:59.426Z,17.10
2022-10-17T12:03:37.909Z,17.10
2022-10-17T12:06:15.012Z,17.20
2022-10-17T12:08:49.878Z,17.20
2022-10-17T12:11:34.661Z,17.20
2022-10-17T12:14:06.200Z,17.20
2022-10-17T12:16:47.481Z,17.20
2022-10-17T12:19:33.930Z,17.20
2022-10-17T12:22:18.569Z,17.20
2022-10-17T12:24:56.192Z,17.20
2022-10-17T12:27:33.716Z,17.20
2022-10-17T12:30:06.104Z,17.20
2022-10-17T12:33:04.086Z,17.20
2022-10-17T12:35:25.850Z,17.20
2022-10-17T12:38:20.076Z,17.20
2022-10-17T12:41:02.890Z,17.20
2022-10-17T12:46:56.463Z,17.30
2022-10-17T12:49:42.076Z,17.30
2022-10-17T12:52:27.140Z,17.30
2022-10-17T12:55:17.545Z,17.30
2022-10-17T12:57:55.552Z,17.30
2022-10-17T13:00:29.532Z,17.30
2022-10-17T13:03:03.592Z,17.30
2022-10-17T13:05:35.945Z,17.30
2022-10-17T13:08:09.311Z,17.30
2022-10-17T13:10:43.056Z,17.30
2022-10-17T13:13:17.579Z,17.30
2022-10-17T13:15:49.797Z,17.30
2022-10-17T13:18:22.217Z,17.30
2022-10-17T13:21:00.802Z,17.30
2022-10-17T13:23:32.829Z,17.30
2022-10-17T13:26:14.676Z,17.30
2022-10-17T13:28:43.915Z,17.40
2022-10-17T13:31:32.548Z,17.40
2022-10-17T13:34:02.666Z,17.40
2022-10-17T13:36:33.822Z,17.40
2022-10-17T13:39:12.026Z,17.40
2022-10-17T13:41:43.968Z,17.40
2022-10-17T13:44:17.243Z,17.40
2022-10-17T13:46:47.591Z,17.40
2022-10-17T13:49:25.956Z,17.40
2022-10-17T13:52:00.697Z,17.40
2022-10-17T13:54:40.250Z,17.40
2022-10-17T13:57:20.722Z,17.40
2022-10-17T13:59:52.487Z,17.40
2022-10-17T14:02:23.051Z,17.40
2022-10-17T14:05:16.724Z,17.50
2022-10-17T14:10:43.551Z,17.50
2022-10-17T14:13:22.742Z,17.50
2022-10-17T14:15:54.931Z,17.50
2022-10-17T14:18:33.243Z,17.50
2022-10-17T14:24:15.137Z,17.50
2022-10-17T14:26:51.897Z,17.50
2022-10-17T14:29:25.184Z,17.50
2022-10-17T14:32:05.573Z,17.50
2022-10-17T14:34:37.052Z,17.50
2022-10-17T14:37:12.387Z,17.50
2022-10-17T14:39:42.809Z,17.50
2022-10-17T14:42:20.603Z,17.50
2022-10-17T14:44:51.514Z,17.50
2022-10-17T14:47:42.338Z,17.50
2022-10-17T14:50:23.725Z,17.50
2022-10-17T14:53:04.396Z,17.50
2022-10-17T14:55:36.368Z,17.50
2022-10-17T14:58:17.816Z,17.50
2022-10-17T15:00:46.377Z,17.50
2022-10-17T15:03:15.406Z,17.50
2022-10-17T15:05:43.777Z,17.50
2022-10-17T15:08:15.301Z,17.50
2022-10-17T15:10:46.396Z,17.50
2022-10-17T15:13:27.577Z,17.50
2022-10-17T15:15:56.916Z,17.50
2022-10-17T15:18:25.590Z,17.50
2022-10-17T15:21:04.608Z,17.50
2022-10-17T15:23:35.110Z,17.50
2022-10-17T15:26:07.463Z,17.50
2022-10-17T15:28:36.584Z,17.50
2022-10-17T15:31:05.450Z,17.50
2022-10-17T15:33:34.469Z,17.50
2022-10-17T15:36:03.322Z,17.50
2022-10-17T15:38:32.406Z,17.50
2022-10-17T15:41:01.553Z,17.50
2022-10-17T15:43:31.458Z,17.50
2022-10-17T15:46:01.764Z,17.50
2022-10-17T15:48:32.823Z,17.50
2022-10-17T15:51:01.591Z,17.50
2022-10-17T15:53:30.239Z,17.50
2022-10-17T15:56:00.518Z,17.50
2022-10-17T15:58:36.315Z,17.50
2022-10-17T16:01:06.844Z,17.50
2022-10-17T16:03:36.530Z,17.50
2022-10-17T16:06:06.930Z,17.50
2022-10-17T16:08:37.631Z,17.40
2022-10-17T16:11:07.209Z,17.40
2022-10-17T16:13:38.012Z,17.40
2022-10-17T16:16:07.134Z,17.40
2022-10-17T16:18:37.448Z,17.40
2022-10-17T16:21:06.759Z,17.40
2022-10-17T16:23:35.090Z,17.40
2022-10-17T16:26:03.468Z,17.40
2022-10-17T16:28:32.286Z,17.40
2022-10-17T16:31:02.476Z,17.40
2022-10-17T16:33:31.526Z,17.40
2022-10-17T16:36:00.042Z,17.30
2022-10-17T16:38:28.549Z,17.40
2022-10-17T16:40:56.835Z,17.30
2022-10-17T16:43:25.184Z,17.30
2022-10-17T16:45:53.423Z,17.30
2022-10-17T16:48:28.815Z,17.30
2022-10-17T16:50:58.694Z,17.30
2022-10-17T16:53:27.037Z,17.30
2022-10-17T16:56:01.317Z,17.30
2022-10-17T16:58:32.211Z,17.30
2022-10-17T17:01:01.993Z,17.30
2022-10-17T17:03:31.816Z,17.30
2022-10-17T17:06:00.140Z,17.30
2022-10-17T17:08:28.572Z,17.30
2022-10-17T17:10:57.660Z,17.30
2022-10-17T17:13:26.225Z,17.30
2022-10-17T17:16:02.777Z,17.30
2022-10-17T17:18:32.621Z,17.30
2022-10-17T17:21:01.844Z,17.30
2022-10-17T17:23:31.154Z,17.30
2022-10-17T17:26:00.454Z,17.30
2022-10-17T17:28:29.689Z,17.30
2022-10-17T17:30:58.421Z,17.30
2022-10-17T17:33:28.353Z,17.30
2022-10-17T17:36:00.104Z,17.30
2022-10-17T17:38:30.965Z,17.30
2022-10-17T17:40:59.470Z,17.30
2022-10-17T17:43:28.269Z,17.30
2022-10-17T17:45:56.785Z,17.30
2022-10-17T17:48:25.203Z,17.30
2022-10-17T17:50:53.592Z,17.30
2022-10-17T17:53:23.473Z,17.30
2022-10-17T17:56:03.140Z,17.30
2022-10-17T17:58:31.490Z,17.30
2022-10-17T18:01:00.440Z,17.30
2022-10-17T18:03:29.437Z,17.30
2022-10-17T18:05:57.741Z,17.30
2022-10-17T18:08:27.831Z,17.30
2022-10-17T18:10:58.468Z,17.30
2022-10-17T18:13:27.066Z,17.30
2022-10-17T18:15:58.198Z,17.30
2022-10-17T18:18:27.908Z,17.30
2022-10-17T18:20:56.589Z,17.30
2022-10-17T18:23:25.493Z,17.30
2022-10-17T18:26:00.953Z,17.30
2022-10-17T18:28:29.653Z,17.30
2022-10-17T18:30:58.575Z,17.30
2022-10-17T18:33:26.963Z,17.30
2022-10-17T18:35:58.264Z,17.30
2022-10-17T18:38:26.882Z,17.30
2022-10-17T18:41:05.350Z,17.30
2022-10-17T18:43:35.339Z,17.30
2022-10-17T18:46:08.531Z,17.30
2022-10-17T18:48:41.698Z,17.30
2022-10-17T18:51:10.490Z,17.30
2022-10-17T18:53:41.321Z,17.30
2022-10-17T18:56:11.966Z,17.30
2022-10-17T18:58:41.592Z,17.30
2022-10-17T19:01:15.360Z,17.30
2022-10-17T19:03:44.727Z,17.30
2022-10-17T19:06:16.533Z,17.30
2022-10-17T19:08:45.801Z,17.30
2022-10-17T19:11:16.873Z,17.30
2022-10-17T19:16:17.551Z,17.30
2022-10-17T19:18:50.826Z,17.30
2022-10-17T19:21:21.927Z,17.30
2022-10-17T19:23:52.675Z,17.30
2022-10-17T19:26:23.543Z,17.30
2022-10-17T19:28:53.798Z,17.30
2022-10-17T19:31:26.802Z,17.30
2022-10-17T19:33:56.594Z,17.30
2022-10-17T19:36:30.418Z,17.30
2022-10-17T19:39:03.685Z,17.30
2022-10-17T19:41:34.294Z,17.30
2022-10-17T19:44:02.811Z,17.30
2022-10-17T19:46:32.213Z,17.30
2022-10-17T19:49:00.963Z,17.30
2022-10-17T19:51:29.630Z,17.30
2022-10-17T19:54:00.363Z,17.30
2022-10-17T19:56:30.390Z,17.30
2022-10-17T19:59:00.635Z,17.30
2022-10-17T20:01:31.563Z,17.30
2022-10-17T20:04:00.075Z,17.30
2022-10-17T20:06:29.012Z,17.30
2022-10-17T20:08:57.429Z,17.30
2022-10-17T20:11:27.625Z,17.30
2022-10-17T20:13:57.164Z,17.30
2022-10-17T20:16:28.657Z,17.30
2022-10-17T20:18:58.433Z,17.30
2022-10-17T20:21:28.667Z,17.30
2022-10-17T20:23:56.969Z,17.30
2022-10-17T20:26:42.596Z,17.30
2022-10-17T20:29:15.258Z,17.30
2022-10-17T20:31:46.607Z,17.30
2022-10-17T20:34:17.823Z,17.30
2022-10-17T20:36:46.473Z,17.30
2022-10-17T20:39:16.370Z,17.30
2022-10-17T20:41:45.514Z,17.30
2022-10-17T20:44:14.600Z,17.30
2022-10-17T20:46:57.624Z,17.30
2022-10-17T20:49:30.034Z,17.30
2022-10-17T20:51:58.424Z,17.30
2022-10-17T20:54:28.346Z,17.30
2022-10-17T20:56:59.884Z,17.30
2022-10-17T20:59:31.467Z,17.30
2022-10-17T21:02:01.386Z,17.30
2022-10-17T21:04:46.047Z,17.30
2022-10-17T21:07:15.846Z,17.30
2022-10-17T21:09:45.527Z,17.30
2022-10-17T21:12:21.602Z,17.30
2022-10-17T21:14:59.619Z,17.30
2022-10-17T21:17:29.712Z,17.30
2022-10-17T21:19:58.050Z,17.30
2022-10-17T21:22:26.590Z,17.30
2022-10-17T21:24:54.884Z,17.30
2022-10-17T21:27:23.222Z,17.30
2022-10-17T21:29:52.129Z,17.30
2022-10-17T21:32:33.382Z,17.30
2022-10-17T21:35:11.134Z,17.30
2022-10-17T21:37:39.484Z,17.30
2022-10-17T21:40:09.178Z,17.30
2022-10-17T21:42:37.687Z,17.30
2022-10-17T21:45:15.179Z,17.30
2022-10-17T21:47:54.940Z,17.30
2022-10-17T21:50:34.206Z,17.30
2022-10-17T21:53:02.517Z,17.30
2022-10-17T21:55:30.885Z,17.30
2022-10-17T21:58:00.665Z,17.30
2022-10-17T22:00:29.057Z,17.30
2022-10-17T22:02:57.510Z,17.30
2022-10-17T22:05:25.903Z,17.30
2022-10-17T22:07:55.914Z,17.30
2022-10-17T22:10:24.551Z,17.30
2022-10-17T22:12:52.950Z,17.30
2022-10-17T22:15:21.491Z,17.30
2022-10-17T22:17:49.998Z,17.30
2022-10-17T22:20:19.251Z,17.30
2022-10-17T22:22:47.802Z,17.30
2022-10-17T22:25:17.802Z,17.30
2022-10-17T22:27:46.223Z,17.30
2022-10-17T22:30:14.636Z,17.30
2022-10-17T22:32:43.241Z,17.30
2022-10-17T22:35:11.876Z,17.30
2022-10-17T22:37:40.397Z,17.30
2022-10-17T22:40:09.649Z,17.30
2022-10-17T22:42:39.406Z,17.30
2022-10-17T22:45:08.457Z,17.30
2022-10-17T22:47:36.774Z,17.30
2022-10-17T22:50:05.507Z,17.30
2022-10-17T22:52:34.026Z,17.30
2022-10-17T22:55:04.474Z,17.30
2022-10-17T22:57:33.164Z,17.30
2022-10-17T23:00:03.327Z,17.30
2022-10-17T23:02:32.621Z,17.30
2022-10-17T23:05:02.115Z,17.30
2022-10-17T23:07:30.578Z,17.30
2022-10-17T23:09:59.103Z,17.30
2022-10-17T23:12:27.801Z,17.30
2022-10-17T23:14:56.475Z,17.30
2022-10-17T23:17:26.422Z,17.30
2022-10-17T23:19:57.005Z,17.30
2022-10-17T23:22:26.129Z,17.30
2022-10-17T23:24:54.615Z,17.30
2022-10-17T23:27:23.009Z,17.30
2022-10-17T23:29:51.417Z,17.30
2022-10-17T23:32:20.987Z,17.30
2022-10-17T23:34:50.667Z,17.30
2022-10-17T23:37:19.653Z,17.30
2022-10-17T23:39:48.196Z,17.30
2022-10-17T23:42:16.563Z,17.30
2022-10-17T23:44:45.109Z,17.30
2022-10-17T23:47:13.593Z,17.20
2022-10-17T23:49:41.982Z,17.30
2022-10-17T23:52:11.894Z,17.30
2022-10-17T23:57:09.490Z,17.30
2022-10-17T23:59:38.089Z,17.30
